sensor_id;sensor_type;location;lat;lon;timestamp;pressure;altitude;pressure_sealevel;temperature;humidity
71621;BME280;59471;42.254;23.102;2023-11-21T00:00:19;95773.56;;;1.97;90.60
71621;BME280;59471;42.254;23.102;2023-11-21T00:02:45;95775.97;;;1.89;91.05
71621;BME280;59471;42.254;23.102;2023-11-21T00:05:12;95769.88;;;1.90;91.48
71621;BME280;59471;42.254;23.102;2023-11-21T00:07:42;95774.25;;;1.78;91.42
71621;BME280;59471;42.254;23.102;2023-11-21T00:10:09;95775.31;;;1.76;91.66
71621;BME280;59471;42.254;23.102;2023-11-21T00:12:36;95773.19;;;1.81;91.30
71621;BME280;59471;42.254;23.102;2023-11-21T00:15:03;95772.75;;;1.76;90.42
71621;BME280;59471;42.254;23.102;2023-11-21T00:17:30;95777.66;;;1.58;90.43
71621;BME280;59471;42.254;23.102;2023-11-21T00:19:56;95786.59;;;1.75;89.89
71621;BME280;59471;42.254;23.102;2023-11-21T00:22:21;95771.81;;;1.77;89.36
71621;BME280;59471;42.254;23.102;2023-11-21T00:24:47;95771.31;;;1.83;88.78
71621;BME280;59471;42.254;23.102;2023-11-21T00:27:13;95778.53;;;1.89;89.29
71621;BME280;59471;42.254;23.102;2023-11-21T00:29:39;95781.94;;;1.69;89.27
71621;BME280;59471;42.254;23.102;2023-11-21T00:32:06;95788.38;;;1.74;89.85
71621;BME280;59471;42.254;23.102;2023-11-21T00:34:32;95789.84;;;1.56;89.89
71621;BME280;59471;42.254;23.102;2023-11-21T00:36:58;95783.88;;;1.55;89.96
71621;BME280;59471;42.254;23.102;2023-11-21T00:39:24;95775.53;;;1.20;90.90
71621;BME280;59471;42.254;23.102;2023-11-21T00:41:51;95779.44;;;1.46;90.58
71621;BME280;59471;42.254;23.102;2023-11-21T00:44:17;95784.38;;;1.38;90.73
71621;BME280;59471;42.254;23.102;2023-11-21T00:46:42;95803.94;;;1.52;89.93
71621;BME280;59471;42.254;23.102;2023-11-21T00:49:08;95799.97;;;1.48;90.31
71621;BME280;59471;42.254;23.102;2023-11-21T00:51:34;95803.81;;;1.53;89.79
71621;BME280;59471;42.254;23.102;2023-11-21T00:54:00;95798.66;;;1.53;89.88
71621;BME280;59471;42.254;23.102;2023-11-21T00:56:26;95806.63;;;1.18;90.79
71621;BME280;59471;42.254;23.102;2023-11-21T00:58:52;95815.41;;;1.15;91.57
71621;BME280;59471;42.254;23.102;2023-11-21T01:01:19;95808.13;;;1.21;90.83
71621;BME280;59471;42.254;23.102;2023-11-21T01:03:48;95805.13;;;1.04;91.46
71621;BME280;59471;42.254;23.102;2023-11-21T01:06:15;95796.19;;;1.08;92.55
71621;BME280;59471;42.254;23.102;2023-11-21T01:08:40;95792.84;;;1.29;91.34
71621;BME280;59471;42.254;23.102;2023-11-21T01:11:06;95791.94;;;1.19;91.28
71621;BME280;59471;42.254;23.102;2023-11-21T01:13:37;95786.97;;;1.38;91.08
71621;BME280;59471;42.254;23.102;2023-11-21T01:16:02;95782.53;;;1.29;90.91
71621;BME280;59471;42.254;23.102;2023-11-21T01:18:29;95780.09;;;1.27;91.17
71621;BME280;59471;42.254;23.102;2023-11-21T01:20:54;95775.81;;;1.05;91.53
71621;BME280;59471;42.254;23.102;2023-11-21T01:23:20;95779.63;;;1.22;91.52
71621;BME280;59471;42.254;23.102;2023-11-21T01:25:45;95778.94;;;1.20;91.10
71621;BME280;59471;42.254;23.102;2023-11-21T01:28:11;95776.16;;;1.12;91.52
71621;BME280;59471;42.254;23.102;2023-11-21T01:30:37;95762.22;;;1.03;91.27
71621;BME280;59471;42.254;23.102;2023-11-21T01:33:02;95776.00;;;1.25;91.49
71621;BME280;59471;42.254;23.102;2023-11-21T01:35:28;95782.78;;;1.26;91.19
71621;BME280;59471;42.254;23.102;2023-11-21T01:37:54;95777.63;;;1.26;91.56
71621;BME280;59471;42.254;23.102;2023-11-21T01:40:20;95778.09;;;1.31;91.46
71621;BME280;59471;42.254;23.102;2023-11-21T01:42:46;95778.56;;;1.36;91.44
71621;BME280;59471;42.254;23.102;2023-11-21T01:45:12;95780.50;;;1.11;91.50
71621;BME280;59471;42.254;23.102;2023-11-21T01:47:39;95774.63;;;1.09;91.99
71621;BME280;59471;42.254;23.102;2023-11-21T01:50:07;95780.69;;;1.20;91.16
71621;BME280;59471;42.254;23.102;2023-11-21T01:52:37;95782.50;;;1.40;90.61
71621;BME280;59471;42.254;23.102;2023-11-21T01:55:04;95779.84;;;1.30;90.15
71621;BME280;59471;42.254;23.102;2023-11-21T01:57:32;95782.13;;;1.12;90.91
71621;BME280;59471;42.254;23.102;2023-11-21T01:59:58;95772.69;;;1.23;90.24
71621;BME280;59471;42.254;23.102;2023-11-21T02:02:24;95757.75;;;0.94;91.15
71621;BME280;59471;42.254;23.102;2023-11-21T02:04:49;95749.69;;;0.99;91.38
71621;BME280;59471;42.254;23.102;2023-11-21T02:07:15;95745.00;;;0.92;91.81
71621;BME280;59471;42.254;23.102;2023-11-21T02:09:40;95749.16;;;0.73;93.36
71621;BME280;59471;42.254;23.102;2023-11-21T02:12:08;95744.28;;;1.02;92.39
71621;BME280;59471;42.254;23.102;2023-11-21T02:14:36;95741.63;;;0.92;93.23
71621;BME280;59471;42.254;23.102;2023-11-21T02:17:02;95746.81;;;1.13;92.00
71621;BME280;59471;42.254;23.102;2023-11-21T02:19:29;95740.03;;;1.12;90.94
71621;BME280;59471;42.254;23.102;2023-11-21T02:21:57;95737.38;;;0.91;92.56
71621;BME280;59471;42.254;23.102;2023-11-21T02:24:32;95742.75;;;1.10;92.14
71621;BME280;59471;42.254;23.102;2023-11-21T02:26:57;95739.22;;;1.11;91.60
71621;BME280;59471;42.254;23.102;2023-11-21T02:29:23;95739.47;;;1.08;91.51
71621;BME280;59471;42.254;23.102;2023-11-21T02:31:53;95751.81;;;1.26;90.53
71621;BME280;59471;42.254;23.102;2023-11-21T02:34:20;95751.66;;;1.38;89.57
71621;BME280;59471;42.254;23.102;2023-11-21T02:36:47;95745.53;;;1.19;90.44
71621;BME280;59471;42.254;23.102;2023-11-21T02:39:16;95747.31;;;1.07;91.70
71621;BME280;59471;42.254;23.102;2023-11-21T02:41:43;95754.00;;;1.09;91.47
71621;BME280;59471;42.254;23.102;2023-11-21T02:44:09;95756.13;;;0.93;91.92
71621;BME280;59471;42.254;23.102;2023-11-21T02:46:36;95752.59;;;0.94;92.79
71621;BME280;59471;42.254;23.102;2023-11-21T02:49:06;95754.47;;;1.14;91.73
71621;BME280;59471;42.254;23.102;2023-11-21T02:51:32;95752.78;;;1.25;91.53
71621;BME280;59471;42.254;23.102;2023-11-21T02:53:59;95746.41;;;1.29;90.66
71621;BME280;59471;42.254;23.102;2023-11-21T02:56:28;95740.13;;;1.22;90.87
71621;BME280;59471;42.254;23.102;2023-11-21T02:58:57;95742.16;;;1.07;92.56
71621;BME280;59471;42.254;23.102;2023-11-21T03:01:23;95744.56;;;1.20;92.34
71621;BME280;59471;42.254;23.102;2023-11-21T03:03:53;95738.50;;;1.21;93.12
71621;BME280;59471;42.254;23.102;2023-11-21T03:06:20;95726.94;;;1.36;93.87
71621;BME280;59471;42.254;23.102;2023-11-21T03:08:46;95728.81;;;1.34;94.21
71621;BME280;59471;42.254;23.102;2023-11-21T03:11:12;95730.69;;;1.32;94.13
71621;BME280;59471;42.254;23.102;2023-11-21T03:13:39;95731.66;;;1.31;94.23
71621;BME280;59471;42.254;23.102;2023-11-21T03:16:08;95737.28;;;1.36;94.42
71621;BME280;59471;42.254;23.102;2023-11-21T03:18:36;95744.44;;;1.53;93.88
71621;BME280;59471;42.254;23.102;2023-11-21T03:21:02;95753.78;;;1.66;92.71
71621;BME280;59471;42.254;23.102;2023-11-21T03:23:28;95749.50;;;1.76;92.33
71621;BME280;59471;42.254;23.102;2023-11-21T03:25:54;95737.41;;;1.55;91.83
71621;BME280;59471;42.254;23.102;2023-11-21T03:28:20;95752.75;;;1.36;92.65
71621;BME280;59471;42.254;23.102;2023-11-21T03:30:45;95742.69;;;1.33;93.31
71621;BME280;59471;42.254;23.102;2023-11-21T03:33:11;95750.09;;;1.47;93.09
71621;BME280;59471;42.254;23.102;2023-11-21T03:35:37;95743.50;;;1.54;91.98
71621;BME280;59471;42.254;23.102;2023-11-21T03:38:03;95746.63;;;1.37;92.97
71621;BME280;59471;42.254;23.102;2023-11-21T03:40:29;95752.91;;;1.55;92.06
71621;BME280;59471;42.254;23.102;2023-11-21T03:42:56;95739.94;;;1.67;91.14
71621;BME280;59471;42.254;23.102;2023-11-21T03:45:22;95747.75;;;1.55;91.15
71621;BME280;59471;42.254;23.102;2023-11-21T03:47:48;95740.41;;;1.39;91.79
71621;BME280;59471;42.254;23.102;2023-11-21T03:50:13;95740.94;;;1.22;92.43
71621;BME280;59471;42.254;23.102;2023-11-21T03:52:39;95733.81;;;1.14;93.34
71621;BME280;59471;42.254;23.102;2023-11-21T03:55:04;95738.81;;;1.27;93.07
71621;BME280;59471;42.254;23.102;2023-11-21T03:57:30;95737.06;;;1.16;93.08
71621;BME280;59471;42.254;23.102;2023-11-21T03:59:56;95749.72;;;1.31;93.07
71621;BME280;59471;42.254;23.102;2023-11-21T04:02:21;95753.81;;;1.54;92.32
71621;BME280;59471;42.254;23.102;2023-11-21T04:04:47;95744.31;;;1.34;92.09
71621;BME280;59471;42.254;23.102;2023-11-21T04:07:12;95739.19;;;1.55;91.46
71621;BME280;59471;42.254;23.102;2023-11-21T04:09:39;95740.59;;;1.15;91.99
71621;BME280;59471;42.254;23.102;2023-11-21T04:12:06;95735.69;;;1.12;92.88
71621;BME280;59471;42.254;23.102;2023-11-21T04:14:34;95746.97;;;1.11;93.01
71621;BME280;59471;42.254;23.102;2023-11-21T04:16:59;95734.97;;;1.22;93.10
71621;BME280;59471;42.254;23.102;2023-11-21T04:19:25;95731.88;;;1.39;91.83
71621;BME280;59471;42.254;23.102;2023-11-21T04:21:50;95731.47;;;1.44;91.32
71621;BME280;59471;42.254;23.102;2023-11-21T04:24:16;95729.72;;;1.44;90.12
71621;BME280;59471;42.254;23.102;2023-11-21T04:26:43;95726.81;;;1.37;90.71
71621;BME280;59471;42.254;23.102;2023-11-21T04:29:09;95722.69;;;1.14;91.08
71621;BME280;59471;42.254;23.102;2023-11-21T04:31:34;95725.78;;;1.29;90.95
71621;BME280;59471;42.254;23.102;2023-11-21T04:34:00;95722.34;;;1.07;91.14
71621;BME280;59471;42.254;23.102;2023-11-21T04:36:26;95714.66;;;0.96;91.59
71621;BME280;59471;42.254;23.102;2023-11-21T04:38:52;95722.84;;;1.01;91.75
71621;BME280;59471;42.254;23.102;2023-11-21T04:41:17;95728.91;;;1.11;91.80
71621;BME280;59471;42.254;23.102;2023-11-21T04:43:43;95735.84;;;1.32;90.34
71621;BME280;59471;42.254;23.102;2023-11-21T04:46:08;95726.34;;;1.32;90.01
71621;BME280;59471;42.254;23.102;2023-11-21T04:48:34;95726.75;;;1.16;89.95
71621;BME280;59471;42.254;23.102;2023-11-21T04:50:59;95738.16;;;1.14;90.66
71621;BME280;59471;42.254;23.102;2023-11-21T04:53:25;95744.13;;;1.14;91.22
71621;BME280;59471;42.254;23.102;2023-11-21T04:55:51;95737.00;;;1.07;91.66
71621;BME280;59471;42.254;23.102;2023-11-21T04:58:17;95744.19;;;0.92;92.14
71621;BME280;59471;42.254;23.102;2023-11-21T05:00:43;95741.00;;;1.11;91.69
71621;BME280;59471;42.254;23.102;2023-11-21T05:03:09;95741.75;;;1.23;91.27
71621;BME280;59471;42.254;23.102;2023-11-21T05:05:34;95746.00;;;1.12;90.62
71621;BME280;59471;42.254;23.102;2023-11-21T05:08:00;95747.69;;;0.91;92.20
71621;BME280;59471;42.254;23.102;2023-11-21T05:10:27;95742.06;;;0.97;92.45
71621;BME280;59471;42.254;23.102;2023-11-21T05:12:52;95738.31;;;1.01;91.80
71621;BME280;59471;42.254;23.102;2023-11-21T05:15:18;95737.00;;;1.07;92.38
71621;BME280;59471;42.254;23.102;2023-11-21T05:17:44;95733.66;;;0.84;92.35
71621;BME280;59471;42.254;23.102;2023-11-21T05:20:11;95735.38;;;0.95;92.30
71621;BME280;59471;42.254;23.102;2023-11-21T05:22:38;95741.09;;;1.09;92.12
71621;BME280;59471;42.254;23.102;2023-11-21T05:25:05;95739.13;;;1.02;92.22
71621;BME280;59471;42.254;23.102;2023-11-21T05:27:33;95728.19;;;1.21;91.55
71621;BME280;59471;42.254;23.102;2023-11-21T05:30:00;95729.88;;;1.31;90.73
71621;BME280;59471;42.254;23.102;2023-11-21T05:32:34;95733.75;;;1.26;91.12
71621;BME280;59471;42.254;23.102;2023-11-21T05:35:00;95741.41;;;1.16;90.97
71621;BME280;59471;42.254;23.102;2023-11-21T05:37:26;95742.53;;;1.02;92.39
71621;BME280;59471;42.254;23.102;2023-11-21T05:39:53;95751.88;;;1.03;92.42
71621;BME280;59471;42.254;23.102;2023-11-21T05:42:22;95737.53;;;1.22;92.33
71621;BME280;59471;42.254;23.102;2023-11-21T05:44:48;95741.50;;;1.26;91.33
71621;BME280;59471;42.254;23.102;2023-11-21T05:47:14;95747.59;;;1.36;91.04
71621;BME280;59471;42.254;23.102;2023-11-21T05:49:40;95749.38;;;1.24;91.64
71621;BME280;59471;42.254;23.102;2023-11-21T05:52:06;95742.94;;;1.19;91.90
71621;BME280;59471;42.254;23.102;2023-11-21T05:54:32;95749.97;;;1.16;92.73
71621;BME280;59471;42.254;23.102;2023-11-21T05:56:57;95763.38;;;1.10;93.40
71621;BME280;59471;42.254;23.102;2023-11-21T05:59:24;95759.69;;;1.24;93.27
71621;BME280;59471;42.254;23.102;2023-11-21T06:01:49;95758.16;;;1.33;93.49
71621;BME280;59471;42.254;23.102;2023-11-21T06:04:15;95757.66;;;1.39;93.64
71621;BME280;59471;42.254;23.102;2023-11-21T06:06:40;95761.22;;;1.59;92.47
71621;BME280;59471;42.254;23.102;2023-11-21T06:09:06;95765.50;;;1.70;91.56
71621;BME280;59471;42.254;23.102;2023-11-21T06:11:34;95770.03;;;1.56;91.85
71621;BME280;59471;42.254;23.102;2023-11-21T06:14:00;95763.59;;;1.51;92.45
71621;BME280;59471;42.254;23.102;2023-11-21T06:16:26;95766.97;;;1.51;92.51
71621;BME280;59471;42.254;23.102;2023-11-21T06:18:53;95763.72;;;1.49;93.46
71621;BME280;59471;42.254;23.102;2023-11-21T06:21:18;95770.91;;;1.67;93.45
71621;BME280;59471;42.254;23.102;2023-11-21T06:23:44;95764.38;;;1.83;92.88
71621;BME280;59471;42.254;23.102;2023-11-21T06:26:10;95768.91;;;1.91;91.90
71621;BME280;59471;42.254;23.102;2023-11-21T06:28:35;95764.75;;;1.79;93.08
71621;BME280;59471;42.254;23.102;2023-11-21T06:31:01;95772.50;;;1.79;93.51
71621;BME280;59471;42.254;23.102;2023-11-21T06:33:33;95770.94;;;1.88;93.45
71621;BME280;59471;42.254;23.102;2023-11-21T06:35:59;95782.16;;;1.77;93.23
71621;BME280;59471;42.254;23.102;2023-11-21T06:38:28;95776.72;;;1.80;92.89
71621;BME280;59471;42.254;23.102;2023-11-21T06:40:56;95780.31;;;1.89;93.64
71621;BME280;59471;42.254;23.102;2023-11-21T06:43:23;95790.34;;;2.03;92.87
71621;BME280;59471;42.254;23.102;2023-11-21T06:45:49;95781.81;;;2.33;92.92
71621;BME280;59471;42.254;23.102;2023-11-21T06:48:14;95773.78;;;2.36;92.54
71621;BME280;59471;42.254;23.102;2023-11-21T06:50:40;95777.63;;;2.42;92.24
71621;BME280;59471;42.254;23.102;2023-11-21T06:53:07;95780.88;;;2.34;92.08
71621;BME280;59471;42.254;23.102;2023-11-21T06:55:33;95774.41;;;2.19;92.94
71621;BME280;59471;42.254;23.102;2023-11-21T06:58:00;95773.94;;;2.14;93.65
71621;BME280;59471;42.254;23.102;2023-11-21T07:00:26;95775.00;;;2.32;92.76
71621;BME280;59471;42.254;23.102;2023-11-21T07:02:55;95761.50;;;2.49;92.48
71621;BME280;59471;42.254;23.102;2023-11-21T07:05:21;95768.00;;;2.74;92.27
71621;BME280;59471;42.254;23.102;2023-11-21T07:07:48;95773.19;;;2.84;91.12
71621;BME280;59471;42.254;23.102;2023-11-21T07:10:14;95758.81;;;2.30;92.28
71621;BME280;59471;42.254;23.102;2023-11-21T07:12:40;95766.84;;;2.67;92.23
71621;BME280;59471;42.254;23.102;2023-11-21T07:15:07;95771.72;;;2.91;92.13
71621;BME280;59471;42.254;23.102;2023-11-21T07:17:35;95780.56;;;2.89;92.00
71621;BME280;59471;42.254;23.102;2023-11-21T07:20:02;95784.38;;;2.94;91.96
71621;BME280;59471;42.254;23.102;2023-11-21T07:22:28;95775.41;;;2.98;90.52
71621;BME280;59471;42.254;23.102;2023-11-21T07:24:57;95781.09;;;2.92;91.27
71621;BME280;59471;42.254;23.102;2023-11-21T07:27:22;95790.13;;;3.08;91.47
71621;BME280;59471;42.254;23.102;2023-11-21T07:29:48;95789.50;;;3.25;90.54
71621;BME280;59471;42.254;23.102;2023-11-21T07:32:14;95783.38;;;3.26;90.33
71621;BME280;59471;42.254;23.102;2023-11-21T07:34:40;95776.56;;;3.35;90.24
71621;BME280;59471;42.254;23.102;2023-11-21T07:37:09;95787.22;;;3.41;90.10
71621;BME280;59471;42.254;23.102;2023-11-21T07:39:35;95790.34;;;3.35;90.39
71621;BME280;59471;42.254;23.102;2023-11-21T07:42:02;95793.50;;;3.68;90.35
71621;BME280;59471;42.254;23.102;2023-11-21T07:44:28;95784.78;;;3.79;89.09
71621;BME280;59471;42.254;23.102;2023-11-21T07:46:54;95792.28;;;3.72;89.01
71621;BME280;59471;42.254;23.102;2023-11-21T07:49:23;95783.41;;;3.65;88.97
71621;BME280;59471;42.254;23.102;2023-11-21T07:51:50;95789.97;;;3.69;88.68
71621;BME280;59471;42.254;23.102;2023-11-21T07:54:16;95787.91;;;3.72;88.56
71621;BME280;59471;42.254;23.102;2023-11-21T07:56:41;95784.91;;;3.77;88.61
71621;BME280;59471;42.254;23.102;2023-11-21T07:59:07;95801.13;;;3.89;88.20
71621;BME280;59471;42.254;23.102;2023-11-21T08:01:33;95785.59;;;3.89;88.08
71621;BME280;59471;42.254;23.102;2023-11-21T08:03:59;95783.09;;;3.97;88.66
71621;BME280;59471;42.254;23.102;2023-11-21T08:06:29;95790.63;;;4.10;88.06
71621;BME280;59471;42.254;23.102;2023-11-21T08:08:56;95790.41;;;4.40;87.58
71621;BME280;59471;42.254;23.102;2023-11-21T08:11:22;95781.78;;;4.50;87.16
71621;BME280;59471;42.254;23.102;2023-11-21T08:13:47;95777.03;;;4.45;88.12
71621;BME280;59471;42.254;23.102;2023-11-21T08:16:13;95777.78;;;4.65;88.69
71621;BME280;59471;42.254;23.102;2023-11-21T08:18:39;95779.00;;;4.71;89.13
71621;BME280;59471;42.254;23.102;2023-11-21T08:21:05;95777.97;;;4.81;86.74
71621;BME280;59471;42.254;23.102;2023-11-21T08:23:31;95769.44;;;4.71;86.88
71621;BME280;59471;42.254;23.102;2023-11-21T08:25:57;95767.13;;;4.68;88.19
71621;BME280;59471;42.254;23.102;2023-11-21T08:28:22;95771.47;;;4.77;88.05
71621;BME280;59471;42.254;23.102;2023-11-21T08:30:51;95763.53;;;5.06;88.49
71621;BME280;59471;42.254;23.102;2023-11-21T08:33:17;95761.50;;;5.28;87.80
71621;BME280;59471;42.254;23.102;2023-11-21T08:35:44;95772.34;;;5.41;87.23
71621;BME280;59471;42.254;23.102;2023-11-21T08:38:11;95761.94;;;5.23;87.55
71621;BME280;59471;42.254;23.102;2023-11-21T08:40:37;95767.50;;;5.01;86.86
71621;BME280;59471;42.254;23.102;2023-11-21T08:43:03;95773.28;;;5.22;86.98
71621;BME280;59471;42.254;23.102;2023-11-21T08:45:30;95774.13;;;5.41;86.74
71621;BME280;59471;42.254;23.102;2023-11-21T08:47:56;95760.56;;;5.65;86.13
71621;BME280;59471;42.254;23.102;2023-11-21T08:50:22;95759.59;;;5.84;86.94
71621;BME280;59471;42.254;23.102;2023-11-21T08:52:48;95747.09;;;6.05;86.32
71621;BME280;59471;42.254;23.102;2023-11-21T08:55:14;95739.88;;;5.99;84.06
71621;BME280;59471;42.254;23.102;2023-11-21T08:57:40;95725.94;;;6.00;84.41
71621;BME280;59471;42.254;23.102;2023-11-21T09:00:07;95711.44;;;6.15;83.18
71621;BME280;59471;42.254;23.102;2023-11-21T09:02:42;95694.06;;;6.24;82.99
71621;BME280;59471;42.254;23.102;2023-11-21T09:05:09;95679.13;;;6.60;81.17
71621;BME280;59471;42.254;23.102;2023-11-21T09:07:40;95668.78;;;6.68;80.99
71621;BME280;59471;42.254;23.102;2023-11-21T09:10:07;95659.69;;;6.81;79.27
71621;BME280;59471;42.254;23.102;2023-11-21T09:12:35;95642.44;;;6.80;80.09
71621;BME280;59471;42.254;23.102;2023-11-21T09:15:05;95633.28;;;6.67;80.70
71621;BME280;59471;42.254;23.102;2023-11-21T09:17:33;95622.88;;;6.67;79.43
71621;BME280;59471;42.254;23.102;2023-11-21T09:20:02;95615.56;;;6.63;80.23
71621;BME280;59471;42.254;23.102;2023-11-21T09:22:30;95613.81;;;6.71;79.43
71621;BME280;59471;42.254;23.102;2023-11-21T09:24:57;95614.66;;;6.38;79.89
71621;BME280;59471;42.254;23.102;2023-11-21T09:27:23;95612.47;;;6.67;80.48
71621;BME280;59471;42.254;23.102;2023-11-21T09:29:49;95603.25;;;6.81;80.60
71621;BME280;59471;42.254;23.102;2023-11-21T09:32:14;95597.22;;;6.72;79.90
71621;BME280;59471;42.254;23.102;2023-11-21T09:34:43;95585.84;;;6.90;79.96
71621;BME280;59471;42.254;23.102;2023-11-21T09:37:09;95581.00;;;7.03;79.90
71621;BME280;59471;42.254;23.102;2023-11-21T09:39:35;95567.13;;;6.78;81.02
71621;BME280;59471;42.254;23.102;2023-11-21T09:42:08;95567.47;;;6.75;82.21
71621;BME280;59471;42.254;23.102;2023-11-21T09:47:22;95576.03;;;6.67;82.28
71621;BME280;59471;42.254;23.102;2023-11-21T09:49:49;95574.00;;;6.37;83.85
71621;BME280;59471;42.254;23.102;2023-11-21T09:52:27;95589.28;;;6.32;83.90
71621;BME280;59471;42.254;23.102;2023-11-21T09:54:55;95579.19;;;6.29;84.59
71621;BME280;59471;42.254;23.102;2023-11-21T09:57:24;95587.72;;;6.55;83.72
71621;BME280;59471;42.254;23.102;2023-11-21T09:59:51;95580.22;;;6.44;83.19
71621;BME280;59471;42.254;23.102;2023-11-21T10:04:53;95561.97;;;6.36;83.25
71621;BME280;59471;42.254;23.102;2023-11-21T10:07:20;95558.66;;;6.17;83.31
71621;BME280;59471;42.254;23.102;2023-11-21T10:09:47;95545.16;;;5.79;83.64
71621;BME280;59471;42.254;23.102;2023-11-21T10:12:15;95542.41;;;5.81;84.79
71621;BME280;59471;42.254;23.102;2023-11-21T10:14:42;95554.63;;;6.15;84.21
71621;BME280;59471;42.254;23.102;2023-11-21T10:17:10;95547.28;;;6.10;83.86
71621;BME280;59471;42.254;23.102;2023-11-21T10:19:39;95541.88;;;6.03;84.49
71621;BME280;59471;42.254;23.102;2023-11-21T10:22:05;95540.31;;;6.19;83.44
71621;BME280;59471;42.254;23.102;2023-11-21T10:24:32;95528.38;;;6.00;85.75
71621;BME280;59471;42.254;23.102;2023-11-21T10:26:58;95519.34;;;6.12;86.24
71621;BME280;59471;42.254;23.102;2023-11-21T10:29:25;95520.69;;;6.33;86.59
71621;BME280;59471;42.254;23.102;2023-11-21T10:31:52;95523.28;;;6.24;86.58
71621;BME280;59471;42.254;23.102;2023-11-21T10:34:20;95525.09;;;6.40;87.43
71621;BME280;59471;42.254;23.102;2023-11-21T10:36:46;95518.13;;;6.41;87.12
71621;BME280;59471;42.254;23.102;2023-11-21T10:39:21;95512.28;;;6.47;86.91
71621;BME280;59471;42.254;23.102;2023-11-21T10:41:49;95523.31;;;6.41;88.21
71621;BME280;59471;42.254;23.102;2023-11-21T10:44:19;95521.63;;;6.23;89.71
71621;BME280;59471;42.254;23.102;2023-11-21T10:46:53;95523.78;;;6.28;89.44
71621;BME280;59471;42.254;23.102;2023-11-21T10:49:26;95527.06;;;6.46;89.30
71621;BME280;59471;42.254;23.102;2023-11-21T10:51:53;95528.84;;;6.38;89.62
71621;BME280;59471;42.254;23.102;2023-11-21T10:54:20;95533.25;;;6.62;88.83
71621;BME280;59471;42.254;23.102;2023-11-21T10:56:48;95527.59;;;6.66;88.52
71621;BME280;59471;42.254;23.102;2023-11-21T10:59:16;95533.13;;;6.80;87.71
71621;BME280;59471;42.254;23.102;2023-11-21T11:01:45;95526.31;;;6.79;87.47
71621;BME280;59471;42.254;23.102;2023-11-21T11:04:14;95525.66;;;6.85;87.66
71621;BME280;59471;42.254;23.102;2023-11-21T11:07:05;95505.31;;;6.72;88.54
71621;BME280;59471;42.254;23.102;2023-11-21T11:09:35;95483.00;;;6.78;89.39
71621;BME280;59471;42.254;23.102;2023-11-21T11:12:04;95477.97;;;6.68;90.35
71621;BME280;59471;42.254;23.102;2023-11-21T11:14:30;95474.25;;;6.79;89.77
71621;BME280;59471;42.254;23.102;2023-11-21T11:16:58;95470.97;;;6.93;89.79
71621;BME280;59471;42.254;23.102;2023-11-21T11:19:25;95463.50;;;6.90;89.51
71621;BME280;59471;42.254;23.102;2023-11-21T11:24:47;95480.56;;;7.09;88.35
71621;BME280;59471;42.254;23.102;2023-11-21T11:32:58;95480.25;;;7.28;87.23
71621;BME280;59471;42.254;23.102;2023-11-21T11:38:22;95478.13;;;7.24;88.83
71621;BME280;59471;42.254;23.102;2023-11-21T11:40:52;95473.56;;;7.26;88.73
71621;BME280;59471;42.254;23.102;2023-11-21T11:43:36;95458.81;;;7.57;87.16
71621;BME280;59471;42.254;23.102;2023-11-21T11:46:10;95466.91;;;7.71;85.57
71621;BME280;59471;42.254;23.102;2023-11-21T11:48:40;95461.03;;;7.77;84.97
71621;BME280;59471;42.254;23.102;2023-11-21T11:51:15;95451.25;;;7.79;85.35
71621;BME280;59471;42.254;23.102;2023-11-21T11:53:45;95433.91;;;7.94;85.13
71621;BME280;59471;42.254;23.102;2023-11-21T11:56:29;95435.66;;;7.71;84.38
71621;BME280;59471;42.254;23.102;2023-11-21T11:58:58;95423.97;;;7.58;85.31
71621;BME280;59471;42.254;23.102;2023-11-21T12:01:27;95420.47;;;7.74;85.07
71621;BME280;59471;42.254;23.102;2023-11-21T12:06:45;95397.66;;;8.07;83.60
71621;BME280;59471;42.254;23.102;2023-11-21T12:09:18;95411.44;;;8.16;82.78
71621;BME280;59471;42.254;23.102;2023-11-21T12:11:46;95405.03;;;8.27;81.97
71621;BME280;59471;42.254;23.102;2023-11-21T12:14:13;95408.69;;;8.18;82.33
71621;BME280;59471;42.254;23.102;2023-11-21T12:16:39;95407.75;;;8.10;82.88
71621;BME280;59471;42.254;23.102;2023-11-21T12:19:05;95407.47;;;7.97;83.79
71621;BME280;59471;42.254;23.102;2023-11-21T12:21:31;95397.88;;;7.66;85.15
71621;BME280;59471;42.254;23.102;2023-11-21T12:23:57;95385.81;;;7.97;83.59
71621;BME280;59471;42.254;23.102;2023-11-21T12:26:26;95392.09;;;8.10;82.44
71621;BME280;59471;42.254;23.102;2023-11-21T12:28:53;95381.06;;;8.00;83.63
71621;BME280;59471;42.254;23.102;2023-11-21T12:31:22;95380.69;;;8.11;82.86
71621;BME280;59471;42.254;23.102;2023-11-21T12:33:48;95380.72;;;8.03;84.03
71621;BME280;59471;42.254;23.102;2023-11-21T12:36:13;95372.50;;;8.15;83.84
71621;BME280;59471;42.254;23.102;2023-11-21T12:38:40;95374.56;;;8.19;84.48
71621;BME280;59471;42.254;23.102;2023-11-21T12:41:07;95380.63;;;8.20;84.62
71621;BME280;59471;42.254;23.102;2023-11-21T12:43:33;95376.69;;;8.47;82.37
71621;BME280;59471;42.254;23.102;2023-11-21T12:46:13;95365.16;;;8.41;83.13
71621;BME280;59471;42.254;23.102;2023-11-21T12:48:42;95366.44;;;8.45;83.19
71621;BME280;59471;42.254;23.102;2023-11-21T12:51:09;95369.63;;;8.32;83.34
71621;BME280;59471;42.254;23.102;2023-11-21T12:53:40;95368.50;;;8.27;84.17
71621;BME280;59471;42.254;23.102;2023-11-21T12:56:15;95366.72;;;8.27;84.11
71621;BME280;59471;42.254;23.102;2023-11-21T12:58:45;95367.06;;;8.24;83.72
71621;BME280;59471;42.254;23.102;2023-11-21T13:01:13;95363.75;;;8.53;83.68
71621;BME280;59471;42.254;23.102;2023-11-21T13:03:43;95350.69;;;8.53;83.56
71621;BME280;59471;42.254;23.102;2023-11-21T13:06:10;95346.88;;;8.64;82.62
71621;BME280;59471;42.254;23.102;2023-11-21T13:08:37;95343.97;;;8.59;83.57
71621;BME280;59471;42.254;23.102;2023-11-21T13:11:04;95334.13;;;8.46;83.92
71621;BME280;59471;42.254;23.102;2023-11-21T13:13:31;95331.47;;;8.54;83.50
71621;BME280;59471;42.254;23.102;2023-11-21T13:16:00;95337.44;;;8.40;84.48
71621;BME280;59471;42.254;23.102;2023-11-21T13:18:27;95338.44;;;8.39;84.36